Cardin, Oklahoma
Current Conditions -  °F | °C
As of 11:53 PM on Wednesday 22 Oct 2014 (Local Time) from KJLN Reporting Station
Clear Clear  
Wind Chill: 59°   Ceiling: Unl
Heat Index: 59°   Visibility: 10mi
Dew Point: 51°   Wind: 7mph
Humidity: 75%   Direction: 140°SE
Pressure: 30.14"   Gusts: NA
Location:  36.97°N, 94.85°W
Report Text: KJLN 230453Z AUTO 14006KT 10SM CLR 15/11 A3014 RMK AO2 SLP202 T01500106
Loading
Personal Weather Stations






























Interactive Weather Map
Tropical Storm Tracking
New forecast layout! Learn more

10-Day Weather Forecast

Advertisements
Track Severe Weather on mobile